Wednesday, August 31, 2016
04:23 UTC
  |  Log In   |  Register Free
Airport Search:

Fresno Yosemite International Airport
(KFAT)

FAA data valid effective Jul 21 2016 - Sep 15 2016 (unless otherwise noted).

 
 
 
 
 
 
 
 
 
 
 
 
 
 
Summary: Fresno Yosemite International (FAT)

Weather Summary


METAR for FAT is not available. Closest METAR is for
METAR

METAR KFAT 310353Z 32009KT 10SM CLR 29/07 A2985 RMK AO2 SLP103 T02940067

METAR KFAT 310253Z 30010KT 10SM FEW150 FEW180 FEW200 31/04 A2983 RMK AO2 SLP096 HZ ALQDS OBSCG MTNS DSNT N-NE T03060044 55002

METAR KFAT 310153Z 30012KT 10SM FEW150 FEW200 33/02 A2981 RMK AO2 SLP092 HZ FU OBSCG MTNS DSNT N-NE-SE T03280022

METAR KFCH 310415Z 10SM CLR 26/10 A2985 RMK A01

METAR KHJO 310353Z 32007KT 10SM CLR 28/07 A2985 RMK AO2 SLP106 T02830067

METAR KMAE 310353Z 31006KT 10SM CLR 25/09 A2985 RMK AO2 SLP105 T02500094

TAF for FAT is not available.
TAF

KFAT - TAF KFAT 302320Z 3100/3124 31009KT P6SM SKC =

KNLC - TAF KNLC 3023/3123 33011KT 9999 FEW200 532809 533702 QNH2978INS

KNLC - TEMPO 3100/3105 33012G20KT

KNLC - FM310500 33011G18KT 9999 SKC 500000 QNH2979INS

KNLC - FM311200 31012KT 9999 SKC QNH2982INS T17/3113Z T36/3123Z FS30012 =

KVIS - TAF KVIS 302320Z 3100/3124 31009KT P6SM SKC =

GlobalAir.com is loading additional information.
 Current Weather at FAT
87.0 F° (30.6 C°)
A Few Clouds
Northwest winds at 11.5 mph
Pressure:
29.83 in
Humidity:
19%
Wind:
Northwest at 11.5 MPH (10 KT)
Dew Point:
39.9 F° (4.4 C°)
Visibility:
10.00 mi
FAT NOAA Radar

Communications Summary


CTAFN/A
UNICOM122.95
ATIS121.35
WX ASOS
FRESNO GROUND121.7 [24 Hours]
FRESNO TOWER118.2 [24 Hours]
FRESNO APPROACH118.5
118.5 (S/SE VISALIA AREA)
119.0
119.45
119.6
119.6 (240-090)
123.9
132.35 (091-239)
323.25
351.95
FRESNO DEPARTURE118.5
118.5 (S/SE VISALIA AREA)
119.0
119.45
119.6 (240-090)
123.9
132.35 (091-239)
323.25
CLEARANCE DELIVERY124.35
EMERGENCY121.5

Closest Alternate Airports with Instrument Procedures

KFCH - Fresno Chandler Executive - 6.4 nm SW from FAT

KMAE - Madera Municipal - 26.3 nm NW from FAT

KHJO - Hanford Municipal - 32.2 nm SE from FAT

KVIS - Visalia Municipal - 36.4 nm SE from FAT

KF34 - Firebaugh - 41.7 nm NW from FAT

KTLR - Mefford Field - 48.1 nm SE from FAT

KMPI - Mariposa-Yosemite - 53.8 nm NW from FAT

KMCE - Merced Municipal/Macready Field - 56.3 nm NW from FAT

KMER - Castle - 62.8 nm NW from FAT

KPTV - Porterville Municipal - 63.2 nm SE from FAT

Find All Airport Services Find A Hotel Find A Rental Car Find A Golf Course Find A Restaurant $100 Hamburger



FBO's on the Field
FBO Company Facility Photos Services Transportation Aviation Fuel Prices: Prices include tax
Catering Weather Repair Courtesy Rental Type 100LL JetA JetA+ MOGAS 8087
 
Ross Aviation - FAT

This FBO has not yet been rated
FS:Chevron
Last Updated: Aug-16
Login to update fuel prices
SS:
Contact Ross Aviation - FATMore FBO Information
 
Signature Flight Support - FAT

This FBO has not yet been rated
FS:Independent
Last Updated: Aug-23
Login to update fuel prices
SS:
Contact Signature Flight Support - FATMore FBO Information
 
Add another FBO Facility Photos Catering Weather Repair Courtesy Rental Type 100LL JetA JetA+ MOGAS 8087
Services Transportation Aviation Fuel Prices: Prices include tax


model-print
model-print
model-print
model-print